Sperling, Canada
Current Conditions -  °F | °C
As of 1:00 PM on Thursday 27 Nov 2014 (Local Time) from CYWG Reporting Station
Overcast Overcast  
Wind Chill: -16°   Ceiling: 20000
Heat Index:   Visibility: 15mi
Dew Point: -6°   Wind: 16mph
Humidity: 66%   Direction: 180°S
Pressure: 30.35"   Gusts: NA
Location:  49.52°N, 97.7°W
Report Text: CYWG 271900Z 18014KT 15SM OVC200 M16/M21 A3035 RMK CI8 SLP305
Loading
Personal Weather Stations






























Interactive Weather Map New forecast layout! Learn more

10-Day Weather Forecast

Advertisements
Track Severe Weather on mobile